sensor_id;sensor_type;location;lat;lon;timestamp;pressure;altitude;pressure_sealevel;temperature;humidity
76331;BME280;65148;51.912;15.570;2023-08-07T00:02:18;100111.09;;;14.95;100.00
76331;BME280;65148;51.912;15.570;2023-08-07T00:17:19;100085.28;;;14.96;100.00
76331;BME280;65148;51.912;15.570;2023-08-07T00:32:20;100090.81;;;14.88;100.00
76331;BME280;65148;51.912;15.570;2023-08-07T00:47:40;100104.69;;;14.83;100.00
76331;BME280;65148;51.912;15.570;2023-08-07T01:02:42;100128.54;;;14.91;100.00
76331;BME280;65148;51.912;15.570;2023-08-07T01:17:44;100131.54;;;14.69;100.00
76331;BME280;65148;51.912;15.570;2023-08-07T01:32:54;100138.63;;;14.61;100.00
76331;BME280;65148;51.912;15.570;2023-08-07T01:48:09;100139.02;;;14.34;100.00
76331;BME280;65148;51.912;15.570;2023-08-07T02:03:11;100144.66;;;14.37;100.00
76331;BME280;65148;51.912;15.570;2023-08-07T02:18:12;100145.79;;;14.36;100.00
76331;BME280;65148;51.912;15.570;2023-08-07T02:33:13;100144.49;;;14.34;100.00
76331;BME280;65148;51.912;15.570;2023-08-07T02:48:33;100136.31;;;14.25;100.00
76331;BME280;65148;51.912;15.570;2023-08-07T03:03:34;100130.99;;;14.20;100.00
76331;BME280;65148;51.912;15.570;2023-08-07T03:18:35;100124.41;;;14.12;100.00
76331;BME280;65148;51.912;15.570;2023-08-07T03:33:36;100129.59;;;14.05;100.00
76331;BME280;65148;51.912;15.570;2023-08-07T03:48:55;100123.48;;;13.91;100.00
76331;BME280;65148;51.912;15.570;2023-08-07T04:03:56;100155.16;;;14.09;100.00
76331;BME280;65148;51.912;15.570;2023-08-07T04:18:57;100174.77;;;14.29;100.00
76331;BME280;65148;51.912;15.570;2023-08-07T04:33:59;100179.30;;;14.42;100.00
76331;BME280;65148;51.912;15.570;2023-08-07T04:49:19;100170.60;;;14.40;100.00
76331;BME280;65148;51.912;15.570;2023-08-07T05:04:19;100178.59;;;14.71;100.00
76331;BME280;65148;51.912;15.570;2023-08-07T05:19:21;100206.32;;;14.69;100.00
76331;BME280;65148;51.912;15.570;2023-08-07T05:34:21;100222.01;;;14.98;100.00
76331;BME280;65148;51.912;15.570;2023-08-07T05:49:42;100214.87;;;15.06;100.00
76331;BME280;65148;51.912;15.570;2023-08-07T06:04:43;100232.72;;;15.50;100.00
76331;BME280;65148;51.912;15.570;2023-08-07T06:19:44;100246.90;;;15.60;100.00
76331;BME280;65148;51.912;15.570;2023-08-07T06:34:45;100253.34;;;15.64;100.00
76331;BME280;65148;51.912;15.570;2023-08-07T06:50:05;100263.07;;;15.83;100.00
76331;BME280;65148;51.912;15.570;2023-08-07T07:05:06;100281.23;;;15.96;100.00
76331;BME280;65148;51.912;15.570;2023-08-07T07:20:07;100299.47;;;16.21;100.00
76331;BME280;65148;51.912;15.570;2023-08-07T07:35:11;100308.70;;;16.17;100.00
76331;BME280;65148;51.912;15.570;2023-08-07T07:50:28;100328.07;;;16.20;100.00
76331;BME280;65148;51.912;15.570;2023-08-07T08:05:29;100322.73;;;16.65;100.00
76331;BME280;65148;51.912;15.570;2023-08-07T08:20:30;100333.61;;;16.95;100.00
76331;BME280;65148;51.912;15.570;2023-08-07T08:35:33;100341.03;;;17.27;100.00
76331;BME280;65148;51.912;15.570;2023-08-07T08:50:50;100357.43;;;17.36;100.00
76331;BME280;65148;51.912;15.570;2023-08-07T09:05:53;100378.77;;;17.39;100.00
76331;BME280;65148;51.912;15.570;2023-08-07T09:20:55;100378.69;;;17.60;100.00
76331;BME280;65148;51.912;15.570;2023-08-07T09:35:58;100404.56;;;17.92;100.00
76331;BME280;65148;51.912;15.570;2023-08-07T09:51:12;100409.68;;;18.66;100.00
76331;BME280;65148;51.912;15.570;2023-08-07T10:06:13;100405.31;;;19.49;100.00
76331;BME280;65148;51.912;15.570;2023-08-07T10:21:15;100408.20;;;19.84;83.48
76331;BME280;65148;51.912;15.570;2023-08-07T10:36:17;100391.79;;;19.91;77.90
76331;BME280;65148;51.912;15.570;2023-08-07T10:51:35;100400.70;;;19.53;77.92
76331;BME280;65148;51.912;15.570;2023-08-07T11:06:37;100433.00;;;18.69;98.05
76331;BME280;65148;51.912;15.570;2023-08-07T11:21:38;100412.94;;;17.05;100.00
76331;BME280;65148;51.912;15.570;2023-08-07T11:36:41;100411.48;;;16.87;100.00
76331;BME280;65148;51.912;15.570;2023-08-07T11:51:56;100400.18;;;17.00;100.00
76331;BME280;65148;51.912;15.570;2023-08-07T12:06:56;100409.89;;;17.51;100.00
76331;BME280;65148;51.912;15.570;2023-08-07T12:21:57;100403.59;;;18.60;100.00
76331;BME280;65148;51.912;15.570;2023-08-07T12:36:58;100427.16;;;18.98;100.00
76331;BME280;65148;51.912;15.570;2023-08-07T12:52:18;100462.53;;;18.68;100.00
76331;BME280;65148;51.912;15.570;2023-08-07T13:07:19;100483.11;;;19.39;100.00
76331;BME280;65148;51.912;15.570;2023-08-07T13:27:55;100475.21;;;18.97;100.00
76331;BME280;65148;51.912;15.570;2023-08-07T13:42:56;100494.96;;;19.11;100.00
76331;BME280;65148;51.912;15.570;2023-08-07T14:28:46;100503.46;;;19.46;100.00
76331;BME280;65148;51.912;15.570;2023-08-07T14:43:47;100515.25;;;19.59;100.00
76331;BME280;65148;51.912;15.570;2023-08-07T14:58:59;100541.78;;;18.71;100.00
76331;BME280;65148;51.912;15.570;2023-08-07T15:14:00;100588.63;;;18.35;100.00
76331;BME280;65148;51.912;15.570;2023-08-07T15:29:04;100549.45;;;16.04;100.00
76331;BME280;65148;51.912;15.570;2023-08-07T15:44:05;100554.74;;;16.56;100.00
76331;BME280;65148;51.912;15.570;2023-08-07T15:59:22;100553.75;;;17.19;100.00
76331;BME280;65148;51.912;15.570;2023-08-07T16:14:23;100576.55;;;17.61;100.00
76331;BME280;65148;51.912;15.570;2023-08-07T16:29:24;100574.60;;;17.62;100.00
76331;BME280;65148;51.912;15.570;2023-08-07T16:44:25;100583.35;;;17.97;100.00
76331;BME280;65148;51.912;15.570;2023-08-07T16:59:44;100650.72;;;17.37;100.00
76331;BME280;65148;51.912;15.570;2023-08-07T17:14:45;100664.11;;;16.33;100.00
76331;BME280;65148;51.912;15.570;2023-08-07T17:29:46;100678.38;;;16.00;100.00
76331;BME280;65148;51.912;15.570;2023-08-07T17:44:47;100673.99;;;15.91;100.00
76331;BME280;65148;51.912;15.570;2023-08-07T18:00:07;100687.88;;;15.94;100.00
76331;BME280;65148;51.912;15.570;2023-08-07T18:15:08;100697.75;;;15.95;100.00
76331;BME280;65148;51.912;15.570;2023-08-07T18:30:10;100715.66;;;16.19;100.00
76331;BME280;65148;51.912;15.570;2023-08-07T18:45:12;100726.32;;;16.12;100.00
76331;BME280;65148;51.912;15.570;2023-08-07T19:00:28;100769.74;;;15.66;100.00
76331;BME280;65148;51.912;15.570;2023-08-07T19:15:29;100782.76;;;15.13;100.00
76331;BME280;65148;51.912;15.570;2023-08-07T19:30:29;100807.78;;;14.89;100.00
76331;BME280;65148;51.912;15.570;2023-08-07T19:45:30;100838.95;;;14.71;100.00
76331;BME280;65148;51.912;15.570;2023-08-07T20:00:50;100822.31;;;14.31;100.00
76331;BME280;65148;51.912;15.570;2023-08-07T20:15:52;100861.77;;;14.44;100.00
76331;BME280;65148;51.912;15.570;2023-08-07T20:30:56;100863.63;;;14.21;100.00
76331;BME280;65148;51.912;15.570;2023-08-07T20:45:56;100897.45;;;14.52;100.00
76331;BME280;65148;51.912;15.570;2023-08-07T21:01:12;100888.65;;;14.42;100.00
76331;BME280;65148;51.912;15.570;2023-08-07T21:16:13;100893.72;;;14.35;100.00
76331;BME280;65148;51.912;15.570;2023-08-07T21:31:16;100903.87;;;14.34;100.00
76331;BME280;65148;51.912;15.570;2023-08-07T21:46:17;100905.37;;;14.54;100.00
76331;BME280;65148;51.912;15.570;2023-08-07T22:01:35;100904.68;;;14.48;100.00
76331;BME280;65148;51.912;15.570;2023-08-07T22:16:36;100926.64;;;14.71;100.00
76331;BME280;65148;51.912;15.570;2023-08-07T22:31:37;100952.45;;;14.56;100.00
76331;BME280;65148;51.912;15.570;2023-08-07T22:46:38;100935.91;;;14.83;100.00
76331;BME280;65148;51.912;15.570;2023-08-07T23:01:56;100933.89;;;14.53;100.00
76331;BME280;65148;51.912;15.570;2023-08-07T23:16:57;100938.37;;;14.49;100.00
76331;BME280;65148;51.912;15.570;2023-08-07T23:31:58;100930.74;;;14.32;100.00
76331;BME280;65148;51.912;15.570;2023-08-07T23:46:59;100930.77;;;14.46;100.00
